This is the latest recevied weather packets stored in our database for station/object IU2EVW-3. If no packets are shown the sender has not sent any weather packets the latest 10 day(s).
| Time | Temp. | Humidity | Pressure | Rain* | Wind** | Luminosity | Snow |
|---|---|---|---|---|---|---|---|
| 1777662082 | 17.22° C | 35% | 1025.6 hPa | - | - | - | - |
| 1777660881 | 17.78° C | 34% | 1025.4 hPa | - | - | - | - |
| 1777659680 | 18.33° C | 33% | 1025.2 hPa | - | - | - | - |
| 1777658479 | 19.44° C | 31% | 1025.1 hPa | - | - | - | - |
| 1777657277 | 21.11° C | 29% | 1025 hPa | - | - | - | - |
| 1777656076 | 21.67° C | 29% | 1024.9 hPa | - | - | - | - |
| 1777654875 | 21.67° C | 30% | 1025 hPa | - | - | - | - |
| 1777653674 | 21.11° C | 29% | 1025.1 hPa | - | - | - | - |
| 1777652473 | 18.89° C | 31% | 1025.4 hPa | - | - | - | - |
| 1777651271 | 18.89° C | 32% | 1025.5 hPa | - | - | - | - |
| 1777650070 | 18.89° C | 31% | 1025.7 hPa | - | - | - | - |
| 1777648869 | 18.89° C | 31% | 1025.9 hPa | - | - | - | - |
| 1777647668 | 18.89° C | 31% | 1026.1 hPa | - | - | - | - |
| 1777646467 | 18.89° C | 31% | 1026.2 hPa | - | - | - | - |
| 1777645265 | 18.33° C | 31% | 1026.4 hPa | - | - | - | - |
| 1777644064 | 18.89° C | 31% | 1026.7 hPa | - | - | - | - |
| 1777642863 | 18.33° C | 31% | 1027 hPa | - | - | - | - |
| 1777641662 | 18.33° C | 31% | 1027.2 hPa | - | - | - | - |
| 1777640461 | 18.33° C | 31% | 1027.3 hPa | - | - | - | - |
| 1777639260 | 17.78° C | 32% | 1027.7 hPa | - | - | - | - |
| 1777638058 | 17.22° C | 32% | 1028 hPa | - | - | - | - |
| 1777636857 | 17.22° C | 32% | 1028 hPa | - | - | - | - |
| 1777635656 | 16.67° C | 32% | 1028.3 hPa | - | - | - | - |
| 1777634455 | 16.11° C | 31% | 1028.5 hPa | - | - | - | - |
| 1777633254 | 16.11° C | 30% | 1028.7 hPa | - | - | - | - |
* Rain since midnight (hover to see other rain measurements)
** Current wind speed in m/s (hover to see current wind gust speed)